Verstervig, Denmark
Current Conditions -  °F | °C
As of 6:20 PM on Sunday 21 Dec 2014 (Local Time) from EKKA Reporting Station
Drizzle Drizzle  
Wind Chill: 37°   Ceiling: 800
Heat Index: 45°   Visibility: 1.7mi
Dew Point: 45°   Wind: 18mph
Humidity: 100%   Direction: 240°WSW
Pressure: 29.68"   Gusts: NA
Location:  56.7°N, 8.22°E
Report Text: EKKA 211720Z 24016KT 210V270 2800 -DZ BR FEW006 BKN00807/07 Q1005
Loading
Personal Weather Stations






























Interactive Weather Map New forecast layout! Learn more

10-Day Weather Forecast

Advertisements
Track Severe Weather on mobile